sensor_id;sensor_type;location;lat;lon;timestamp;pressure;altitude;pressure_sealevel;temperature;humidity
24752;BME280;27246;52.376;4.628;2023-02-22T00:00:00;101412.63;;;6.49;95.41
24752;BME280;27246;52.376;4.628;2023-02-22T00:05:05;101411.63;;;6.40;96.44
24752;BME280;27246;52.376;4.628;2023-02-22T00:10:06;101410.91;;;6.48;96.98
24752;BME280;27246;52.376;4.628;2023-02-22T00:15:15;101411.63;;;6.30;97.95
24752;BME280;27246;52.376;4.628;2023-02-22T00:20:17;101404.84;;;6.34;98.61
24752;BME280;27246;52.376;4.628;2023-02-22T00:25:23;101404.25;;;6.31;99.39
24752;BME280;27246;52.376;4.628;2023-02-22T00:30:28;101398.66;;;6.42;99.12
24752;BME280;27246;52.376;4.628;2023-02-22T00:35:30;101404.97;;;6.33;99.00
24752;BME280;27246;52.376;4.628;2023-02-22T00:40:33;101385.56;;;6.36;98.58
24752;BME280;27246;52.376;4.628;2023-02-22T00:45:35;101389.00;;;6.28;98.42
24752;BME280;27246;52.376;4.628;2023-02-22T00:50:37;101375.91;;;6.32;99.68
24752;BME280;27246;52.376;4.628;2023-02-22T00:55:39;101367.25;;;6.36;98.77
24752;BME280;27246;52.376;4.628;2023-02-22T01:00:41;101375.31;;;6.18;99.58
24752;BME280;27246;52.376;4.628;2023-02-22T01:05:43;101358.06;;;6.28;100.00
24752;BME280;27246;52.376;4.628;2023-02-22T01:10:45;101363.78;;;6.15;100.00
24752;BME280;27246;52.376;4.628;2023-02-22T01:15:47;101370.13;;;6.06;100.00
24752;BME280;27246;52.376;4.628;2023-02-22T01:20:49;101356.88;;;5.91;100.00
24752;BME280;27246;52.376;4.628;2023-02-22T01:25:50;101363.91;;;5.84;100.00
24752;BME280;27246;52.376;4.628;2023-02-22T01:30:52;101366.97;;;5.91;100.00
24752;BME280;27246;52.376;4.628;2023-02-22T01:35:57;101372.13;;;5.94;100.00
24752;BME280;27246;52.376;4.628;2023-02-22T01:41:01;101360.59;;;5.71;100.00
24752;BME280;27246;52.376;4.628;2023-02-22T01:46:04;101359.13;;;5.57;100.00
24752;BME280;27246;52.376;4.628;2023-02-22T01:51:15;101347.31;;;5.66;100.00
24752;BME280;27246;52.376;4.628;2023-02-22T01:56:20;101331.66;;;5.68;100.00
24752;BME280;27246;52.376;4.628;2023-02-22T02:01:24;101342.59;;;5.68;100.00
24752;BME280;27246;52.376;4.628;2023-02-22T02:06:30;101334.38;;;5.68;100.00
24752;BME280;27246;52.376;4.628;2023-02-22T02:11:33;101318.38;;;5.44;100.00
24752;BME280;27246;52.376;4.628;2023-02-22T02:16:41;101320.13;;;5.55;100.00
24752;BME280;27246;52.376;4.628;2023-02-22T02:27:15;101319.09;;;5.36;100.00
24752;BME280;27246;52.376;4.628;2023-02-22T02:32:20;101326.53;;;5.25;100.00
24752;BME280;27246;52.376;4.628;2023-02-22T02:48:08;101299.25;;;5.34;100.00
24752;BME280;27246;52.376;4.628;2023-02-22T02:53:13;101295.78;;;5.42;99.01
24752;BME280;27246;52.376;4.628;2023-02-22T02:58:21;101285.59;;;5.54;98.05
24752;BME280;27246;52.376;4.628;2023-02-22T03:03:47;101276.53;;;5.53;97.63
24752;BME280;27246;52.376;4.628;2023-02-22T03:08:59;101273.22;;;5.50;96.16
24752;BME280;27246;52.376;4.628;2023-02-22T03:19:30;101260.25;;;5.23;96.95
24752;BME280;27246;52.376;4.628;2023-02-22T03:24:50;101246.56;;;5.13;97.12
24752;BME280;27246;52.376;4.628;2023-02-22T03:30:02;101251.59;;;5.17;96.51
24752;BME280;27246;52.376;4.628;2023-02-22T03:35:08;101245.13;;;5.09;97.29
24752;BME280;27246;52.376;4.628;2023-02-22T03:45:23;101229.28;;;5.03;97.42
24752;BME280;27246;52.376;4.628;2023-02-22T03:50:32;101219.94;;;5.05;97.35
24752;BME280;27246;52.376;4.628;2023-02-22T03:55:36;101210.59;;;5.08;97.46
24752;BME280;27246;52.376;4.628;2023-02-22T04:00:39;101202.13;;;5.01;97.34
24752;BME280;27246;52.376;4.628;2023-02-22T04:05:44;101192.88;;;4.92;97.57
24752;BME280;27246;52.376;4.628;2023-02-22T04:10:46;101186.88;;;4.98;98.26
24752;BME280;27246;52.376;4.628;2023-02-22T04:15:50;101183.56;;;4.95;97.93
24752;BME280;27246;52.376;4.628;2023-02-22T04:20:52;101190.78;;;4.96;98.46
24752;BME280;27246;52.376;4.628;2023-02-22T04:26:03;101187.81;;;4.78;98.31
24752;BME280;27246;52.376;4.628;2023-02-22T04:31:05;101183.31;;;4.67;99.19
24752;BME280;27246;52.376;4.628;2023-02-22T04:36:07;101169.78;;;4.96;98.97
24752;BME280;27246;52.376;4.628;2023-02-22T04:41:10;101170.41;;;4.79;97.79
24752;BME280;27246;52.376;4.628;2023-02-22T04:46:12;101162.50;;;4.66;99.36
24752;BME280;27246;52.376;4.628;2023-02-22T04:51:14;101160.53;;;4.78;99.54
24752;BME280;27246;52.376;4.628;2023-02-22T04:56:29;101154.44;;;4.65;99.73
24752;BME280;27246;52.376;4.628;2023-02-22T05:01:32;101146.94;;;4.57;100.00
24752;BME280;27246;52.376;4.628;2023-02-22T05:06:35;101144.50;;;4.54;100.00
24752;BME280;27246;52.376;4.628;2023-02-22T05:11:37;101136.16;;;4.55;100.00
24752;BME280;27246;52.376;4.628;2023-02-22T05:16:38;101131.03;;;4.62;100.00
24752;BME280;27246;52.376;4.628;2023-02-22T05:21:40;101120.50;;;4.57;100.00
24752;BME280;27246;52.376;4.628;2023-02-22T05:26:43;101117.63;;;4.49;100.00
24752;BME280;27246;52.376;4.628;2023-02-22T05:31:44;101116.34;;;4.53;100.00
24752;BME280;27246;52.376;4.628;2023-02-22T05:36:46;101111.75;;;4.54;100.00
24752;BME280;27246;52.376;4.628;2023-02-22T05:41:48;101110.16;;;4.51;100.00
24752;BME280;27246;52.376;4.628;2023-02-22T05:46:50;101104.69;;;4.51;100.00
24752;BME280;27246;52.376;4.628;2023-02-22T05:51:51;101103.56;;;4.54;100.00
24752;BME280;27246;52.376;4.628;2023-02-22T05:56:53;101100.38;;;4.49;100.00
24752;BME280;27246;52.376;4.628;2023-02-22T06:01:55;101096.50;;;4.51;100.00
24752;BME280;27246;52.376;4.628;2023-02-22T06:06:56;101104.44;;;4.54;100.00
24752;BME280;27246;52.376;4.628;2023-02-22T06:11:58;101101.66;;;4.45;100.00
24752;BME280;27246;52.376;4.628;2023-02-22T06:17:00;101092.41;;;4.67;100.00
24752;BME280;27246;52.376;4.628;2023-02-22T06:22:02;101097.13;;;4.65;100.00
24752;BME280;27246;52.376;4.628;2023-02-22T06:27:03;101094.41;;;4.65;100.00
24752;BME280;27246;52.376;4.628;2023-02-22T06:32:05;101099.28;;;4.61;100.00
24752;BME280;27246;52.376;4.628;2023-02-22T06:37:07;101086.34;;;4.63;100.00
24752;BME280;27246;52.376;4.628;2023-02-22T06:42:09;101091.97;;;4.61;100.00
24752;BME280;27246;52.376;4.628;2023-02-22T06:47:10;101088.28;;;4.82;100.00
24752;BME280;27246;52.376;4.628;2023-02-22T06:52:12;101086.13;;;4.76;100.00
24752;BME280;27246;52.376;4.628;2023-02-22T06:57:14;101073.03;;;4.70;100.00
24752;BME280;27246;52.376;4.628;2023-02-22T07:02:15;101085.50;;;4.63;100.00
24752;BME280;27246;52.376;4.628;2023-02-22T07:07:21;101072.16;;;4.59;100.00
24752;BME280;27246;52.376;4.628;2023-02-22T07:12:23;101083.78;;;4.61;100.00
24752;BME280;27246;52.376;4.628;2023-02-22T07:17:24;101069.75;;;4.76;100.00
24752;BME280;27246;52.376;4.628;2023-02-22T07:22:26;101065.94;;;4.57;100.00
24752;BME280;27246;52.376;4.628;2023-02-22T07:27:27;101069.41;;;4.69;100.00
24752;BME280;27246;52.376;4.628;2023-02-22T07:32:29;101077.47;;;4.71;100.00
24752;BME280;27246;52.376;4.628;2023-02-22T07:37:31;101077.34;;;4.82;100.00
24752;BME280;27246;52.376;4.628;2023-02-22T07:42:32;101067.16;;;4.74;100.00
24752;BME280;27246;52.376;4.628;2023-02-22T07:47:34;101069.00;;;4.84;100.00
24752;BME280;27246;52.376;4.628;2023-02-22T07:52:36;101081.38;;;4.78;100.00
24752;BME280;27246;52.376;4.628;2023-02-22T07:57:37;101080.94;;;4.82;100.00
24752;BME280;27246;52.376;4.628;2023-02-22T08:02:42;101088.69;;;4.87;100.00
24752;BME280;27246;52.376;4.628;2023-02-22T08:07:44;101083.41;;;4.95;100.00
24752;BME280;27246;52.376;4.628;2023-02-22T08:12:46;101076.22;;;4.94;100.00
24752;BME280;27246;52.376;4.628;2023-02-22T08:17:50;101083.28;;;5.07;100.00
24752;BME280;27246;52.376;4.628;2023-02-22T08:22:52;101088.75;;;5.07;100.00
24752;BME280;27246;52.376;4.628;2023-02-22T08:27:59;101070.03;;;4.92;100.00
24752;BME280;27246;52.376;4.628;2023-02-22T08:33:03;101066.44;;;4.92;100.00
24752;BME280;27246;52.376;4.628;2023-02-22T08:38:06;101074.47;;;4.93;100.00
24752;BME280;27246;52.376;4.628;2023-02-22T08:43:08;101083.16;;;5.08;100.00
24752;BME280;27246;52.376;4.628;2023-02-22T08:48:10;101074.38;;;5.05;100.00
24752;BME280;27246;52.376;4.628;2023-02-22T08:53:12;101059.44;;;5.09;100.00
24752;BME280;27246;52.376;4.628;2023-02-22T08:58:14;101062.44;;;5.06;100.00
24752;BME280;27246;52.376;4.628;2023-02-22T09:03:16;101056.53;;;5.20;100.00
24752;BME280;27246;52.376;4.628;2023-02-22T09:08:18;101043.47;;;5.24;100.00
24752;BME280;27246;52.376;4.628;2023-02-22T09:13:19;101030.84;;;5.13;100.00
24752;BME280;27246;52.376;4.628;2023-02-22T09:18:21;101047.34;;;5.11;100.00
24752;BME280;27246;52.376;4.628;2023-02-22T09:23:23;101047.63;;;5.18;100.00
24752;BME280;27246;52.376;4.628;2023-02-22T09:28:26;101033.13;;;5.17;100.00
24752;BME280;27246;52.376;4.628;2023-02-22T09:33:29;101017.75;;;5.26;100.00
24752;BME280;27246;52.376;4.628;2023-02-22T09:38:31;101014.31;;;5.24;100.00
24752;BME280;27246;52.376;4.628;2023-02-22T09:49:05;100998.75;;;5.34;100.00
24752;BME280;27246;52.376;4.628;2023-02-22T09:54:20;100995.59;;;5.29;100.00
24752;BME280;27246;52.376;4.628;2023-02-22T09:59:26;101006.06;;;5.44;100.00
24752;BME280;27246;52.376;4.628;2023-02-22T10:04:42;101038.38;;;5.58;100.00
24752;BME280;27246;52.376;4.628;2023-02-22T10:09:48;101039.81;;;5.62;100.00
24752;BME280;27246;52.376;4.628;2023-02-22T10:26:20;101029.31;;;5.67;100.00
24752;BME280;27246;52.376;4.628;2023-02-22T10:31:24;101013.16;;;5.74;100.00
24752;BME280;27246;52.376;4.628;2023-02-22T10:36:27;101007.63;;;5.93;100.00
24752;BME280;27246;52.376;4.628;2023-02-22T10:41:37;101015.81;;;5.93;100.00
24752;BME280;27246;52.376;4.628;2023-02-22T10:46:42;100999.66;;;6.00;100.00
24752;BME280;27246;52.376;4.628;2023-02-22T10:51:47;101037.25;;;5.98;100.00
24752;BME280;27246;52.376;4.628;2023-02-22T10:56:51;101035.53;;;5.97;100.00
24752;BME280;27246;52.376;4.628;2023-02-22T11:01:56;101037.81;;;6.01;100.00
24752;BME280;27246;52.376;4.628;2023-02-22T11:07:09;101043.84;;;6.05;100.00
24752;BME280;27246;52.376;4.628;2023-02-22T11:12:20;101031.97;;;6.14;100.00
24752;BME280;27246;52.376;4.628;2023-02-22T11:17:31;101018.91;;;6.08;100.00
24752;BME280;27246;52.376;4.628;2023-02-22T11:22:38;101014.56;;;6.15;100.00
24752;BME280;27246;52.376;4.628;2023-02-22T11:27:43;101014.78;;;6.32;100.00
24752;BME280;27246;52.376;4.628;2023-02-22T11:32:51;101006.22;;;6.35;100.00
24752;BME280;27246;52.376;4.628;2023-02-22T11:38:21;101006.31;;;6.43;100.00
24752;BME280;27246;52.376;4.628;2023-02-22T11:43:23;100986.56;;;6.49;99.42
24752;BME280;27246;52.376;4.628;2023-02-22T11:48:26;100962.47;;;6.53;99.17
24752;BME280;27246;52.376;4.628;2023-02-22T11:59:50;100953.34;;;6.80;98.55
24752;BME280;27246;52.376;4.628;2023-02-22T12:15:43;100934.47;;;6.95;96.17
24752;BME280;27246;52.376;4.628;2023-02-22T12:20:56;100959.31;;;7.01;96.02
24752;BME280;27246;52.376;4.628;2023-02-22T12:26:04;100956.91;;;6.98;95.52
24752;BME280;27246;52.376;4.628;2023-02-22T12:31:20;100949.06;;;7.04;95.80
24752;BME280;27246;52.376;4.628;2023-02-22T12:36:24;100946.94;;;7.15;95.97
24752;BME280;27246;52.376;4.628;2023-02-22T12:41:47;100940.06;;;7.11;95.00
24752;BME280;27246;52.376;4.628;2023-02-22T12:46:52;100933.38;;;7.14;95.68
24752;BME280;27246;52.376;4.628;2023-02-22T13:08:36;100956.50;;;7.37;95.48
24752;BME280;27246;52.376;4.628;2023-02-22T13:14:05;100947.97;;;7.40;95.93
24752;BME280;27246;52.376;4.628;2023-02-22T13:25:19;100946.31;;;7.48;95.88
24752;BME280;27246;52.376;4.628;2023-02-22T13:30:38;100936.09;;;7.58;96.03
24752;BME280;27246;52.376;4.628;2023-02-22T13:35:52;100940.63;;;7.67;95.24
24752;BME280;27246;52.376;4.628;2023-02-22T13:51:53;100933.28;;;7.76;94.91
24752;BME280;27246;52.376;4.628;2023-02-22T13:56:57;100933.31;;;7.84;94.88
24752;BME280;27246;52.376;4.628;2023-02-22T14:02:01;100929.06;;;7.90;94.37
24752;BME280;27246;52.376;4.628;2023-02-22T14:17:30;100950.69;;;7.93;93.88
24752;BME280;27246;52.376;4.628;2023-02-22T14:22:32;100945.19;;;7.93;93.96
24752;BME280;27246;52.376;4.628;2023-02-22T14:27:40;100954.63;;;7.98;94.74
24752;BME280;27246;52.376;4.628;2023-02-22T14:32:44;100949.31;;;7.97;94.27
24752;BME280;27246;52.376;4.628;2023-02-22T14:37:54;100951.03;;;7.98;93.97
24752;BME280;27246;52.376;4.628;2023-02-22T14:43:12;100947.28;;;7.99;93.84
24752;BME280;27246;52.376;4.628;2023-02-22T14:48:26;100951.06;;;8.06;93.49
24752;BME280;27246;52.376;4.628;2023-02-22T14:58:39;100961.72;;;8.09;93.71
24752;BME280;27246;52.376;4.628;2023-02-22T15:03:42;100957.06;;;8.01;94.21
24752;BME280;27246;52.376;4.628;2023-02-22T15:08:46;100972.66;;;8.01;94.20
24752;BME280;27246;52.376;4.628;2023-02-22T15:13:52;100974.38;;;8.02;94.85
24752;BME280;27246;52.376;4.628;2023-02-22T15:18:57;100978.84;;;8.03;95.17
24752;BME280;27246;52.376;4.628;2023-02-22T15:24:02;100987.69;;;7.89;93.85
24752;BME280;27246;52.376;4.628;2023-02-22T15:29:13;100994.66;;;7.75;93.79
24752;BME280;27246;52.376;4.628;2023-02-22T15:39:28;100997.38;;;7.75;95.76
24752;BME280;27246;52.376;4.628;2023-02-22T15:44:41;100993.25;;;7.71;96.79
24752;BME280;27246;52.376;4.628;2023-02-22T15:49:44;100999.66;;;7.53;98.17
24752;BME280;27246;52.376;4.628;2023-02-22T15:54:50;101004.44;;;7.51;99.36
24752;BME280;27246;52.376;4.628;2023-02-22T15:59:54;101013.84;;;7.49;100.00
24752;BME280;27246;52.376;4.628;2023-02-22T16:05:06;101009.69;;;7.45;100.00
24752;BME280;27246;52.376;4.628;2023-02-22T16:10:25;101010.00;;;7.41;100.00
24752;BME280;27246;52.376;4.628;2023-02-22T16:15:30;101017.50;;;7.39;100.00
24752;BME280;27246;52.376;4.628;2023-02-22T16:20:33;101013.69;;;7.32;100.00
24752;BME280;27246;52.376;4.628;2023-02-22T16:25:35;101011.50;;;7.18;100.00
24752;BME280;27246;52.376;4.628;2023-02-22T16:30:38;101021.66;;;7.26;100.00
24752;BME280;27246;52.376;4.628;2023-02-22T16:35:41;101016.13;;;7.17;100.00
24752;BME280;27246;52.376;4.628;2023-02-22T16:40:56;101021.59;;;7.17;100.00
24752;BME280;27246;52.376;4.628;2023-02-22T16:46:00;101019.91;;;7.16;100.00
24752;BME280;27246;52.376;4.628;2023-02-22T16:51:08;101021.84;;;7.24;100.00
24752;BME280;27246;52.376;4.628;2023-02-22T16:56:17;101017.78;;;7.10;100.00
24752;BME280;27246;52.376;4.628;2023-02-22T17:01:20;101025.38;;;7.16;100.00
24752;BME280;27246;52.376;4.628;2023-02-22T17:06:25;101043.38;;;7.19;100.00
24752;BME280;27246;52.376;4.628;2023-02-22T17:11:27;101028.63;;;7.20;100.00
24752;BME280;27246;52.376;4.628;2023-02-22T17:16:28;101045.81;;;7.22;100.00
24752;BME280;27246;52.376;4.628;2023-02-22T17:21:30;101038.75;;;7.19;100.00
24752;BME280;27246;52.376;4.628;2023-02-22T17:26:32;101042.34;;;7.20;100.00
24752;BME280;27246;52.376;4.628;2023-02-22T17:31:34;101038.28;;;7.24;100.00
24752;BME280;27246;52.376;4.628;2023-02-22T17:36:35;101037.88;;;7.37;100.00
24752;BME280;27246;52.376;4.628;2023-02-22T17:41:37;101048.91;;;7.27;100.00
24752;BME280;27246;52.376;4.628;2023-02-22T17:46:41;101058.47;;;7.23;100.00
24752;BME280;27246;52.376;4.628;2023-02-22T17:51:43;101063.94;;;7.23;100.00
24752;BME280;27246;52.376;4.628;2023-02-22T17:56:49;101064.50;;;7.27;100.00
24752;BME280;27246;52.376;4.628;2023-02-22T18:01:51;101060.03;;;7.26;100.00
24752;BME280;27246;52.376;4.628;2023-02-22T18:06:53;101058.47;;;7.23;100.00
24752;BME280;27246;52.376;4.628;2023-02-22T18:11:55;101052.34;;;7.29;100.00
24752;BME280;27246;52.376;4.628;2023-02-22T18:16:56;101065.75;;;7.32;100.00
24752;BME280;27246;52.376;4.628;2023-02-22T18:21:58;101062.78;;;7.44;100.00
24752;BME280;27246;52.376;4.628;2023-02-22T18:27:00;101067.88;;;7.38;100.00
24752;BME280;27246;52.376;4.628;2023-02-22T18:32:06;101069.91;;;7.36;100.00
24752;BME280;27246;52.376;4.628;2023-02-22T18:37:13;101067.09;;;7.28;100.00
24752;BME280;27246;52.376;4.628;2023-02-22T18:42:15;101081.09;;;7.25;100.00
24752;BME280;27246;52.376;4.628;2023-02-22T18:47:18;101079.06;;;7.27;100.00
24752;BME280;27246;52.376;4.628;2023-02-22T18:52:20;101084.06;;;7.32;100.00
24752;BME280;27246;52.376;4.628;2023-02-22T18:57:22;101086.09;;;7.30;100.00
24752;BME280;27246;52.376;4.628;2023-02-22T19:02:25;101081.66;;;7.29;100.00
24752;BME280;27246;52.376;4.628;2023-02-22T19:07:27;101084.13;;;7.40;100.00
24752;BME280;27246;52.376;4.628;2023-02-22T19:12:29;101086.16;;;7.38;100.00
24752;BME280;27246;52.376;4.628;2023-02-22T19:17:33;101092.69;;;7.37;100.00
24752;BME280;27246;52.376;4.628;2023-02-22T19:22:37;101087.81;;;7.31;100.00
24752;BME280;27246;52.376;4.628;2023-02-22T19:27:43;101087.69;;;7.32;100.00
24752;BME280;27246;52.376;4.628;2023-02-22T19:32:45;101079.06;;;7.27;100.00
24752;BME280;27246;52.376;4.628;2023-02-22T19:37:48;101084.53;;;7.27;100.00
24752;BME280;27246;52.376;4.628;2023-02-22T19:42:55;101087.50;;;7.34;100.00
24752;BME280;27246;52.376;4.628;2023-02-22T19:47:57;101098.31;;;7.35;100.00
24752;BME280;27246;52.376;4.628;2023-02-22T19:52:59;101106.38;;;7.37;100.00
24752;BME280;27246;52.376;4.628;2023-02-22T19:58:00;101102.00;;;7.44;100.00
24752;BME280;27246;52.376;4.628;2023-02-22T20:03:02;101107.50;;;7.44;100.00
24752;BME280;27246;52.376;4.628;2023-02-22T20:08:07;101113.28;;;7.59;100.00
24752;BME280;27246;52.376;4.628;2023-02-22T20:13:09;101115.25;;;7.67;100.00
24752;BME280;27246;52.376;4.628;2023-02-22T20:18:12;101114.47;;;7.56;100.00
24752;BME280;27246;52.376;4.628;2023-02-22T20:23:14;101110.16;;;7.54;100.00
24752;BME280;27246;52.376;4.628;2023-02-22T20:28:15;101121.19;;;7.62;100.00
24752;BME280;27246;52.376;4.628;2023-02-22T20:33:18;101125.03;;;7.51;100.00
24752;BME280;27246;52.376;4.628;2023-02-22T20:38:20;101140.72;;;7.41;100.00
24752;BME280;27246;52.376;4.628;2023-02-22T20:43:22;101141.44;;;7.33;100.00
24752;BME280;27246;52.376;4.628;2023-02-22T20:48:24;101147.50;;;7.37;100.00
24752;BME280;27246;52.376;4.628;2023-02-22T20:53:26;101157.59;;;7.36;100.00
24752;BME280;27246;52.376;4.628;2023-02-22T20:58:27;101158.94;;;7.32;100.00
24752;BME280;27246;52.376;4.628;2023-02-22T21:03:34;101157.66;;;7.27;100.00
24752;BME280;27246;52.376;4.628;2023-02-22T21:08:36;101154.84;;;7.36;100.00
24752;BME280;27246;52.376;4.628;2023-02-22T21:13:38;101160.44;;;7.45;100.00
24752;BME280;27246;52.376;4.628;2023-02-22T21:18:40;101161.03;;;7.38;100.00
24752;BME280;27246;52.376;4.628;2023-02-22T21:23:47;101154.25;;;7.43;100.00
24752;BME280;27246;52.376;4.628;2023-02-22T21:28:51;101150.13;;;7.56;100.00
24752;BME280;27246;52.376;4.628;2023-02-22T21:33:54;101144.16;;;7.61;100.00
24752;BME280;27246;52.376;4.628;2023-02-22T21:38:59;101132.69;;;7.66;100.00
24752;BME280;27246;52.376;4.628;2023-02-22T21:44:01;101138.03;;;7.67;100.00
24752;BME280;27246;52.376;4.628;2023-02-22T21:49:03;101141.78;;;7.66;100.00
24752;BME280;27246;52.376;4.628;2023-02-22T21:54:06;101152.09;;;7.72;100.00
24752;BME280;27246;52.376;4.628;2023-02-22T21:59:14;101140.84;;;7.75;100.00
24752;BME280;27246;52.376;4.628;2023-02-22T22:04:22;101140.50;;;7.78;100.00
24752;BME280;27246;52.376;4.628;2023-02-22T22:09:26;101144.56;;;7.74;100.00
24752;BME280;27246;52.376;4.628;2023-02-22T22:14:33;101144.06;;;7.71;100.00
24752;BME280;27246;52.376;4.628;2023-02-22T22:19:36;101143.03;;;7.72;100.00
24752;BME280;27246;52.376;4.628;2023-02-22T22:24:39;101140.97;;;7.74;100.00
24752;BME280;27246;52.376;4.628;2023-02-22T22:29:46;101137.25;;;7.75;100.00
24752;BME280;27246;52.376;4.628;2023-02-22T22:34:47;101141.84;;;7.74;100.00
24752;BME280;27246;52.376;4.628;2023-02-22T22:39:49;101142.88;;;7.73;100.00
24752;BME280;27246;52.376;4.628;2023-02-22T22:44:51;101150.06;;;7.74;100.00
24752;BME280;27246;52.376;4.628;2023-02-22T22:49:53;101147.31;;;7.74;100.00
24752;BME280;27246;52.376;4.628;2023-02-22T22:55:01;101137.38;;;7.73;100.00
24752;BME280;27246;52.376;4.628;2023-02-22T23:00:07;101153.84;;;7.73;100.00
24752;BME280;27246;52.376;4.628;2023-02-22T23:05:28;101145.75;;;7.72;100.00
24752;BME280;27246;52.376;4.628;2023-02-22T23:10:31;101148.72;;;7.78;100.00
24752;BME280;27246;52.376;4.628;2023-02-22T23:15:33;101141.91;;;7.82;100.00
24752;BME280;27246;52.376;4.628;2023-02-22T23:20:34;101144.81;;;7.81;100.00
24752;BME280;27246;52.376;4.628;2023-02-22T23:25:40;101144.13;;;7.79;100.00
24752;BME280;27246;52.376;4.628;2023-02-22T23:30:42;101148.28;;;7.83;100.00
24752;BME280;27246;52.376;4.628;2023-02-22T23:35:46;101151.16;;;7.81;100.00
24752;BME280;27246;52.376;4.628;2023-02-22T23:40:49;101153.50;;;7.76;100.00
24752;BME280;27246;52.376;4.628;2023-02-22T23:45:54;101153.91;;;7.81;100.00
24752;BME280;27246;52.376;4.628;2023-02-22T23:50:57;101165.44;;;7.67;100.00
24752;BME280;27246;52.376;4.628;2023-02-22T23:55:59;101146.69;;;7.80;100.00
